Huvudsida
METAR-TAF:

METAR-TAF

Flygplatser :

Oljeplattform

Troll C, Norge

latitud: 60-53-09N, longitud: 3-36-35E, höjd: 20 m

Aktuellt väderrapport

Denna rapport gjordes för 16 minuter sedan, klockan 21:20 UTC
Vind 33 kt från syd/sydväst
Temperatur 7°C
Fuktighet 93%
Tryck 1029 hPa
Sikt: 1700 m
lätt regn, fuktdis

METAR: ENQC 192120Z AUTO 20033KT 1700NDV -RA BR OVC015/// 07/06 Q1029 W///S5

Tid: 22:36 (21:36 UTC)


TAF: saknas

Aktuella väderrapporter och prognoser från 4000 flygplatser (METAR- och TAF-rapporter).

De tillgängliga stationerna syns som gula och röda prickar på kartan.

För musen över prickarna för att se namnen på stationerna.

Klicka sedan för att få väderrapporter och prognoser.

För att ändra kartan: Klicka på de gröna knapparna med ett svart kors på för att zooma in; den gröna knappen med ett streck på för att zooma ut; eller på de gröna pilarna för angränsande kartor.


METAR-TAF: